createdAt,value
2017-09-29T00:00:35.835Z,17.87
2017-09-29T00:03:03.391Z,18.55
2017-09-29T00:05:30.941Z,16.17
2017-09-29T00:07:58.498Z,19.00
2017-09-29T00:10:26.062Z,19.48
2017-09-29T00:12:53.622Z,19.67
2017-09-29T00:15:21.089Z,25.58
2017-09-29T00:17:48.638Z,19.85
2017-09-29T00:20:16.104Z,18.00
2017-09-29T00:22:43.562Z,17.98
2017-09-29T00:25:11.017Z,18.25
2017-09-29T00:27:38.469Z,21.02
2017-09-29T00:30:06.022Z,16.58
2017-09-29T00:32:33.489Z,16.10
2017-09-29T00:35:00.942Z,18.90
2017-09-29T00:37:28.498Z,15.68
2017-09-29T00:39:56.058Z,19.00
2017-09-29T00:42:23.513Z,18.83
2017-09-29T00:44:51.087Z,17.62
2017-09-29T00:47:18.543Z,18.92
2017-09-29T00:49:46.086Z,17.95
2017-09-29T00:52:13.651Z,16.33
2017-09-29T00:54:41.214Z,16.60
2017-09-29T00:57:08.772Z,15.05
2017-09-29T00:59:36.239Z,18.75
2017-09-29T01:02:03.747Z,13.62
2017-09-29T01:04:31.214Z,16.58
2017-09-29T01:06:58.703Z,14.87
2017-09-29T01:09:26.163Z,17.83
2017-09-29T01:11:53.715Z,15.30
2017-09-29T01:14:21.179Z,13.85
2017-09-29T01:16:48.635Z,16.55
2017-09-29T01:19:16.090Z,14.60
2017-09-29T01:21:43.551Z,17.60
2017-09-29T01:24:11.037Z,15.25
2017-09-29T01:26:39.261Z,14.10
2017-09-29T01:29:06.726Z,20.00
2017-09-29T01:31:34.256Z,18.55
2017-09-29T01:34:01.752Z,16.25
2017-09-29T01:36:29.209Z,15.73
2017-09-29T01:38:56.666Z,17.98
2017-09-29T01:41:24.129Z,16.50
2017-09-29T01:43:51.591Z,23.12
2017-09-29T01:46:19.142Z,15.40
2017-09-29T01:48:46.600Z,26.65
2017-09-29T01:51:14.155Z,21.80
2017-09-29T01:53:41.611Z,16.85
2017-09-29T01:56:09.069Z,28.48
2017-09-29T01:58:36.529Z,19.10
2017-09-29T02:01:04.095Z,19.40
2017-09-29T02:03:32.369Z,16.45
2017-09-29T02:05:59.921Z,18.45
2017-09-29T02:08:27.478Z,16.65
2017-09-29T02:10:54.933Z,23.85
2017-09-29T02:13:22.394Z,16.83
2017-09-29T02:15:49.849Z,18.27
2017-09-29T02:18:17.328Z,17.35
2017-09-29T02:20:46.285Z,21.05
2017-09-29T02:23:13.749Z,22.50
2017-09-29T02:25:41.285Z,20.60
2017-09-29T02:28:08.739Z,17.10
2017-09-29T02:30:36.238Z,19.45
2017-09-29T02:33:03.704Z,21.75
2017-09-29T02:35:31.162Z,17.77
2017-09-29T02:37:58.625Z,14.90
2017-09-29T02:40:26.162Z,17.15
2017-09-29T02:42:53.627Z,16.92
2017-09-29T02:45:21.096Z,15.68
2017-09-29T02:47:48.559Z,16.65
2017-09-29T02:50:16.107Z,16.55
2017-09-29T02:52:43.567Z,16.75
2017-09-29T02:55:11.118Z,17.70
2017-09-29T02:57:41.030Z,16.35
2017-09-29T03:00:09.471Z,16.12
2017-09-29T03:02:38.495Z,14.57
2017-09-29T03:05:08.310Z,15.10
2017-09-29T03:07:35.870Z,14.02
2017-09-29T03:10:03.334Z,13.45
2017-09-29T03:12:30.790Z,14.82
2017-09-29T03:14:58.246Z,12.32
2017-09-29T03:17:25.810Z,13.70
2017-09-29T03:19:53.290Z,15.88
2017-09-29T03:22:20.747Z,13.55
2017-09-29T03:24:48.975Z,16.52
2017-09-29T03:27:16.424Z,14.30
2017-09-29T03:29:43.910Z,12.63
2017-09-29T03:32:11.366Z,24.15
2017-09-29T03:34:38.825Z,14.98
2017-09-29T03:37:06.278Z,17.37
2017-09-29T03:39:33.739Z,16.42
2017-09-29T03:42:01.202Z,12.95
2017-09-29T03:44:28.670Z,18.48
2017-09-29T03:46:56.214Z,15.68
2017-09-29T03:49:23.799Z,15.10
2017-09-29T03:51:53.513Z,16.00
2017-09-29T03:54:22.507Z,13.77
2017-09-29T03:56:51.402Z,15.07
2017-09-29T03:59:21.442Z,18.35
2017-09-29T04:01:48.941Z,17.00
2017-09-29T04:04:16.400Z,18.92
2017-09-29T04:06:43.885Z,18.42
2017-09-29T04:09:12.105Z,19.23
2017-09-29T04:11:39.602Z,16.50
2017-09-29T04:14:07.062Z,17.33
2017-09-29T04:16:34.524Z,16.30
2017-09-29T04:19:02.075Z,15.20
2017-09-29T04:21:29.592Z,19.75
2017-09-29T04:23:57.037Z,25.92
2017-09-29T04:26:24.492Z,15.07
2017-09-29T04:28:51.940Z,15.40
2017-09-29T04:31:20.165Z,28.55
2017-09-29T04:33:47.637Z,19.48
2017-09-29T04:36:15.090Z,17.42
2017-09-29T04:38:42.546Z,15.77
2017-09-29T04:41:10.179Z,20.73
2017-09-29T04:43:37.622Z,15.57
2017-09-29T04:46:05.094Z,15.18
2017-09-29T04:48:32.711Z,13.65
2017-09-29T04:51:01.177Z,15.18
2017-09-29T04:53:28.731Z,19.33
2017-09-29T04:55:57.003Z,17.33
2017-09-29T04:58:24.459Z,20.73
2017-09-29T05:00:52.030Z,15.45
2017-09-29T05:03:19.577Z,18.50
2017-09-29T05:05:47.042Z,19.55
2017-09-29T05:08:14.507Z,20.27
2017-09-29T05:10:42.001Z,18.15
2017-09-29T05:13:09.538Z,13.55
2017-09-29T05:15:36.996Z,16.67
2017-09-29T05:18:06.038Z,15.57
2017-09-29T05:20:33.592Z,15.73
2017-09-29T05:23:01.050Z,16.17
2017-09-29T05:25:28.510Z,15.85
2017-09-29T05:27:56.129Z,15.85
2017-09-29T05:30:24.401Z,14.50
2017-09-29T05:32:52.630Z,13.15
2017-09-29T05:35:20.082Z,11.73
2017-09-29T05:37:47.576Z,15.00
2017-09-29T05:40:15.021Z,11.82
2017-09-29T05:42:42.489Z,12.00
2017-09-29T05:45:09.970Z,14.23
2017-09-29T05:47:38.217Z,11.98
2017-09-29T05:50:05.670Z,16.27
2017-09-29T05:52:33.232Z,13.43
2017-09-29T05:55:00.688Z,12.25
2017-09-29T05:57:28.246Z,10.77
2017-09-29T05:59:55.822Z,13.85
2017-09-29T06:02:23.275Z,10.05
2017-09-29T06:04:50.803Z,13.20
2017-09-29T06:07:18.249Z,11.65
2017-09-29T06:09:45.734Z,19.60
2017-09-29T06:12:13.189Z,13.70
2017-09-29T06:14:40.978Z,13.32
2017-09-29T06:17:09.242Z,14.02
2017-09-29T06:19:36.794Z,11.65
2017-09-29T06:22:04.351Z,9.98
2017-09-29T06:24:31.818Z,11.27
2017-09-29T06:26:59.275Z,10.85
2017-09-29T06:29:26.822Z,8.93
2017-09-29T06:31:54.293Z,10.17
2017-09-29T06:34:21.747Z,14.63
2017-09-29T06:36:49.206Z,12.83
2017-09-29T06:39:16.721Z,10.50
2017-09-29T06:41:44.220Z,16.33
2017-09-29T06:44:11.683Z,7.70
2017-09-29T06:46:39.138Z,10.23
2017-09-29T06:49:06.646Z,12.40
2017-09-29T06:51:34.096Z,13.23
2017-09-29T06:54:01.608Z,11.07
2017-09-29T06:56:29.164Z,9.90
2017-09-29T06:58:56.609Z,9.53
2017-09-29T07:01:24.065Z,7.80
2017-09-29T07:03:51.539Z,11.33
2017-09-29T07:06:19.019Z,11.83
2017-09-29T07:08:46.529Z,16.90
2017-09-29T07:11:14.012Z,18.87
2017-09-29T07:13:41.604Z,15.97
2017-09-29T07:16:09.891Z,8.20
2017-09-29T07:18:37.425Z,9.47
2017-09-29T07:21:05.679Z,9.10
2017-09-29T07:23:33.242Z,10.97
2017-09-29T07:26:05.093Z,13.60
2017-09-29T07:28:34.887Z,9.63
2017-09-29T07:31:04.159Z,6.53
2017-09-29T07:33:31.605Z,8.93
2017-09-29T07:35:59.865Z,8.37
2017-09-29T07:38:28.314Z,6.93
2017-09-29T07:40:55.899Z,7.20
2017-09-29T07:43:23.345Z,9.20
2017-09-29T07:45:50.814Z,8.23
2017-09-29T07:48:18.258Z,6.17
2017-09-29T07:50:45.804Z,8.13
2017-09-29T07:53:13.277Z,16.37
2017-09-29T07:55:40.725Z,6.77
2017-09-29T07:58:08.207Z,6.93
2017-09-29T08:00:35.658Z,11.87
2017-09-29T08:03:03.189Z,10.57
2017-09-29T08:05:30.643Z,5.50
2017-09-29T08:07:58.122Z,8.80
2017-09-29T08:10:25.662Z,8.80
2017-09-29T08:12:53.129Z,6.20
2017-09-29T08:15:20.693Z,5.80
2017-09-29T08:17:48.154Z,9.83
2017-09-29T08:20:15.629Z,8.50
2017-09-29T08:22:43.879Z,5.97
2017-09-29T08:25:11.346Z,8.10
2017-09-29T08:27:38.825Z,11.47
2017-09-29T08:30:07.074Z,9.10
2017-09-29T08:32:34.599Z,7.73
2017-09-29T08:35:02.052Z,9.07
2017-09-29T08:37:29.584Z,13.63
2017-09-29T08:39:57.826Z,12.27
2017-09-29T08:42:25.293Z,10.67
2017-09-29T08:44:52.753Z,11.33
2017-09-29T08:47:20.214Z,14.93
2017-09-29T08:49:47.674Z,17.63
2017-09-29T08:52:15.942Z,13.70
2017-09-29T08:54:43.406Z,11.30
2017-09-29T08:57:11.115Z,7.37
2017-09-29T08:59:38.574Z,8.30
2017-09-29T09:02:06.065Z,9.37
2017-09-29T09:04:33.525Z,7.80
2017-09-29T09:07:00.981Z,8.40
2017-09-29T09:09:28.447Z,8.03
2017-09-29T09:11:55.989Z,7.37
2017-09-29T09:14:23.454Z,7.80
2017-09-29T09:16:50.909Z,8.17
2017-09-29T09:19:18.369Z,7.70
2017-09-29T09:21:45.830Z,10.53
2017-09-29T09:24:13.325Z,8.13
2017-09-29T09:26:40.790Z,10.37
2017-09-29T09:29:08.283Z,11.50
2017-09-29T09:31:35.762Z,11.10
2017-09-29T09:34:03.223Z,7.90
2017-09-29T09:36:30.681Z,14.27
2017-09-29T09:38:58.263Z,9.73
2017-09-29T09:41:26.510Z,10.63
2017-09-29T09:43:53.981Z,15.93
2017-09-29T09:46:21.442Z,14.47
2017-09-29T09:48:48.898Z,17.60
2017-09-29T09:51:16.355Z,9.60
2017-09-29T09:53:43.812Z,11.23
2017-09-29T09:56:11.262Z,12.20
2017-09-29T09:58:38.812Z,12.30
2017-09-29T10:01:06.473Z,9.03
2017-09-29T10:03:35.434Z,20.80
2017-09-29T10:06:03.034Z,9.57
2017-09-29T10:08:30.498Z,10.60
2017-09-29T10:10:57.962Z,18.70
2017-09-29T10:13:26.217Z,10.20
2017-09-29T10:15:53.678Z,20.30
2017-09-29T10:18:21.134Z,9.77
2017-09-29T10:20:48.594Z,9.03
2017-09-29T10:23:17.586Z,9.17
2017-09-29T10:25:45.042Z,11.47
2017-09-29T10:28:12.509Z,11.60
2017-09-29T10:30:40.021Z,11.07
2017-09-29T10:33:07.463Z,9.03
2017-09-29T10:35:34.923Z,12.60
2017-09-29T10:38:02.433Z,11.40
2017-09-29T10:40:29.893Z,17.10
2017-09-29T10:42:57.354Z,10.27
2017-09-29T10:45:26.313Z,11.37
2017-09-29T10:47:53.789Z,11.07
2017-09-29T10:50:21.243Z,9.53
2017-09-29T10:52:48.814Z,13.40
2017-09-29T10:55:16.281Z,10.10
2017-09-29T10:57:44.641Z,9.13
2017-09-29T11:00:12.107Z,11.60
2017-09-29T11:02:41.089Z,12.53
2017-09-29T11:05:08.541Z,12.10
2017-09-29T11:07:36.006Z,9.23
2017-09-29T11:10:03.561Z,10.57
2017-09-29T11:12:31.043Z,12.13
2017-09-29T11:14:58.491Z,11.27
2017-09-29T11:17:26.033Z,12.67
2017-09-29T11:19:53.594Z,12.60
2017-09-29T11:22:21.050Z,9.23
2017-09-29T11:24:48.585Z,9.20
2017-09-29T11:27:16.042Z,11.70
2017-09-29T11:29:43.498Z,8.60
2017-09-29T11:32:11.006Z,9.03
2017-09-29T11:34:38.466Z,8.87
2017-09-29T11:37:05.926Z,11.53
2017-09-29T11:39:34.206Z,7.93
2017-09-29T11:42:02.426Z,9.93
2017-09-29T11:44:29.874Z,7.83
2017-09-29T11:46:57.365Z,6.70
2017-09-29T11:49:24.921Z,7.50
2017-09-29T11:51:52.383Z,9.13
2017-09-29T11:54:19.853Z,7.30
2017-09-29T11:56:47.298Z,8.70
2017-09-29T11:59:14.759Z,6.80
2017-09-29T12:01:42.229Z,7.70
2017-09-29T12:04:09.682Z,7.90
2017-09-29T12:06:37.141Z,12.57
2017-09-29T12:09:04.594Z,8.00
2017-09-29T12:11:33.561Z,10.97
2017-09-29T12:14:01.105Z,12.03
2017-09-29T12:16:28.595Z,11.10
2017-09-29T12:18:56.954Z,9.83
2017-09-29T12:21:24.402Z,8.20
2017-09-29T12:23:51.989Z,11.63
2017-09-29T12:26:19.549Z,14.57
2017-09-29T12:28:47.015Z,12.17
2017-09-29T12:31:14.574Z,16.37
2017-09-29T12:33:42.042Z,19.37
2017-09-29T12:36:09.562Z,17.23
2017-09-29T12:38:37.042Z,21.03
2017-09-29T12:41:04.512Z,15.70
2017-09-29T12:43:32.030Z,18.70
2017-09-29T12:45:59.495Z,23.70
2017-09-29T12:48:26.982Z,20.60
2017-09-29T12:50:54.444Z,22.83
2017-09-29T12:53:21.908Z,26.13
2017-09-29T12:55:49.377Z,25.30
2017-09-29T12:58:17.606Z,22.70
2017-09-29T13:00:45.065Z,27.77
2017-09-29T13:03:12.531Z,22.43
2017-09-29T13:05:39.997Z,31.37
2017-09-29T13:08:07.490Z,25.20
2017-09-29T13:10:34.967Z,22.97
2017-09-29T13:13:02.489Z,20.93
2017-09-29T13:15:29.945Z,20.50
2017-09-29T13:17:58.175Z,25.97
2017-09-29T13:20:25.642Z,19.60
2017-09-29T13:22:53.117Z,24.57
2017-09-29T13:25:20.596Z,20.03
2017-09-29T13:27:48.057Z,27.17
2017-09-29T13:30:15.523Z,22.30
2017-09-29T13:32:42.986Z,19.20
2017-09-29T13:35:10.502Z,21.47
2017-09-29T13:37:38.058Z,23.63
2017-09-29T13:40:05.618Z,24.23
2017-09-29T13:42:33.082Z,19.50
2017-09-29T13:45:00.673Z,24.93
2017-09-29T13:47:29.685Z,20.40
2017-09-29T13:49:57.178Z,24.67
2017-09-29T13:52:24.755Z,26.83
2017-09-29T13:54:52.215Z,24.90
2017-09-29T13:57:19.684Z,27.03
2017-09-29T13:59:47.230Z,24.27
2017-09-29T14:02:14.786Z,25.03
2017-09-29T14:04:42.243Z,28.73
2017-09-29T14:07:09.719Z,21.17
2017-09-29T14:09:37.190Z,33.57
2017-09-29T14:12:05.433Z,22.60
2017-09-29T14:14:32.914Z,20.60
2017-09-29T14:17:00.378Z,23.60
2017-09-29T14:19:28.606Z,23.63
2017-09-29T14:21:56.089Z,23.47
2017-09-29T14:24:23.679Z,21.80
2017-09-29T14:26:52.133Z,22.13
2017-09-29T14:29:19.610Z,19.20
2017-09-29T14:31:47.857Z,17.73
2017-09-29T14:34:15.405Z,20.20
2017-09-29T14:36:42.918Z,22.40
2017-09-29T14:39:10.375Z,21.17
2017-09-29T14:41:37.899Z,19.67
2017-09-29T14:44:05.357Z,22.20
2017-09-29T14:46:32.837Z,19.30
2017-09-29T14:49:01.093Z,18.07
2017-09-29T14:51:28.568Z,22.07
2017-09-29T14:53:56.794Z,21.93
2017-09-29T14:56:24.291Z,18.63
2017-09-29T14:58:51.742Z,21.13
2017-09-29T15:01:19.292Z,20.87
2017-09-29T15:03:46.774Z,17.37
2017-09-29T15:06:15.014Z,15.43
2017-09-29T15:08:42.500Z,20.37
2017-09-29T15:11:10.735Z,22.03
2017-09-29T15:13:38.197Z,20.70
2017-09-29T15:16:05.664Z,17.73
2017-09-29T15:18:33.233Z,19.50
2017-09-29T15:21:00.786Z,17.40
2017-09-29T15:23:28.307Z,20.40
2017-09-29T15:25:55.759Z,21.93
2017-09-29T15:28:23.301Z,21.20
2017-09-29T15:30:50.837Z,25.70
2017-09-29T15:33:19.068Z,24.10
2017-09-29T15:35:46.553Z,33.40
2017-09-29T15:38:14.011Z,24.20
2017-09-29T15:40:41.576Z,24.13
2017-09-29T15:43:09.037Z,26.90
2017-09-29T15:45:36.495Z,26.47
2017-09-29T15:48:04.041Z,24.33
2017-09-29T15:50:31.564Z,28.93
2017-09-29T15:52:59.274Z,30.43
2017-09-29T15:55:26.829Z,30.73
2017-09-29T15:57:54.384Z,30.70
2017-09-29T16:00:21.846Z,35.23
2017-09-29T16:02:49.313Z,27.63
2017-09-29T16:05:16.859Z,34.90
2017-09-29T16:07:44.327Z,27.60
2017-09-29T16:10:11.891Z,27.73
2017-09-29T16:12:39.456Z,29.10
2017-09-29T16:15:07.698Z,30.67
2017-09-29T16:17:35.159Z,30.13
2017-09-29T16:20:02.736Z,26.93
2017-09-29T16:22:30.198Z,29.87
2017-09-29T16:24:57.654Z,28.57
2017-09-29T16:27:25.123Z,25.30
2017-09-29T16:29:53.388Z,33.60
2017-09-29T16:32:20.853Z,28.93
2017-09-29T16:34:49.089Z,27.87
2017-09-29T16:37:16.555Z,28.43
2017-09-29T16:39:44.111Z,28.50
2017-09-29T16:42:11.588Z,29.07
2017-09-29T16:44:39.044Z,29.93
2017-09-29T16:47:06.603Z,31.43
2017-09-29T16:49:34.158Z,34.50
2017-09-29T16:52:01.654Z,26.40
2017-09-29T16:54:29.957Z,31.03
2017-09-29T16:56:57.411Z,29.77
2017-09-29T16:59:24.907Z,32.73
2017-09-29T17:01:52.944Z,35.90
2017-09-29T17:04:20.442Z,34.13
2017-09-29T17:06:47.905Z,33.97
2017-09-29T17:09:15.357Z,35.27
2017-09-29T17:11:42.910Z,39.80
2017-09-29T17:14:10.372Z,32.23
2017-09-29T17:16:37.944Z,39.00
2017-09-29T17:19:05.434Z,33.70
2017-09-29T17:21:33.019Z,37.00
2017-09-29T17:24:00.470Z,35.20
2017-09-29T17:26:27.963Z,37.78
2017-09-29T17:28:55.483Z,37.83
2017-09-29T17:31:23.002Z,40.63
2017-09-29T17:33:51.250Z,37.30
2017-09-29T17:36:18.712Z,42.10
2017-09-29T17:38:46.258Z,44.30
2017-09-29T17:41:13.808Z,41.77
2017-09-29T17:43:41.268Z,36.40
2017-09-29T17:46:08.745Z,35.30
2017-09-29T17:48:36.279Z,41.13
2017-09-29T17:51:03.827Z,40.23
2017-09-29T17:53:31.283Z,39.10
2017-09-29T17:55:58.752Z,42.10
2017-09-29T17:58:26.232Z,42.40
2017-09-29T18:00:53.809Z,42.97
2017-09-29T18:03:21.273Z,39.40
2017-09-29T18:05:49.529Z,36.95
2017-09-29T18:08:17.807Z,35.10
2017-09-29T18:10:45.281Z,37.03
2017-09-29T18:13:13.546Z,40.63
2017-09-29T18:15:41.013Z,45.67
2017-09-29T18:18:08.583Z,37.57
2017-09-29T18:20:37.330Z,41.30
2017-09-29T18:23:04.797Z,42.67
2017-09-29T18:25:32.317Z,43.57
2017-09-29T18:27:59.820Z,39.83
2017-09-29T18:30:27.344Z,39.13
2017-09-29T18:32:54.809Z,41.45
2017-09-29T18:35:22.274Z,45.70
2017-09-29T18:37:49.738Z,44.40
2017-09-29T18:40:17.219Z,39.03
2017-09-29T18:42:46.673Z,42.27
2017-09-29T18:45:15.963Z,38.95
2017-09-29T18:47:43.438Z,45.43
2017-09-29T18:50:10.926Z,47.07
2017-09-29T18:52:38.390Z,44.03
2017-09-29T18:55:05.862Z,43.33
2017-09-29T18:57:34.095Z,50.13
2017-09-29T19:00:01.563Z,41.77
2017-09-29T19:02:29.037Z,40.00
2017-09-29T19:04:56.510Z,41.90
2017-09-29T19:07:23.974Z,44.10
2017-09-29T19:09:52.241Z,43.17
2017-09-29T19:12:19.802Z,45.47
2017-09-29T19:14:47.261Z,40.17
2017-09-29T19:17:14.730Z,43.23
2017-09-29T19:19:42.971Z,53.90
2017-09-29T19:22:10.536Z,43.92
2017-09-29T19:24:38.102Z,44.83
2017-09-29T19:27:05.566Z,45.23
2017-09-29T19:29:33.107Z,45.57
2017-09-29T19:32:00.682Z,39.73
2017-09-29T19:34:30.310Z,39.77
2017-09-29T19:36:57.839Z,50.05
2017-09-29T19:39:25.464Z,41.60
2017-09-29T19:41:52.943Z,46.03
2017-09-29T19:44:20.518Z,49.43
2017-09-29T19:46:47.994Z,43.78
2017-09-29T19:49:15.538Z,49.23
2017-09-29T19:51:43.059Z,45.40
2017-09-29T19:54:10.625Z,50.47
2017-09-29T19:56:38.930Z,47.93
2017-09-29T19:59:07.171Z,44.83
2017-09-29T20:01:34.730Z,44.75
2017-09-29T20:04:02.202Z,41.90
2017-09-29T20:06:30.521Z,51.60
2017-09-29T20:08:58.117Z,46.80
2017-09-29T20:11:25.569Z,50.03
2017-09-29T20:13:53.090Z,46.13
2017-09-29T20:16:20.547Z,48.60
2017-09-29T20:18:48.359Z,44.50
2017-09-29T20:21:15.835Z,47.47
2017-09-29T20:23:43.359Z,44.63
2017-09-29T20:26:11.582Z,46.53
2017-09-29T20:28:39.038Z,48.30
2017-09-29T20:31:06.613Z,49.57
2017-09-29T20:33:34.078Z,49.43
2017-09-29T20:36:01.655Z,49.42
2017-09-29T20:38:29.907Z,53.35
2017-09-29T20:40:57.390Z,54.33
2017-09-29T20:43:25.631Z,46.37
2017-09-29T20:45:53.119Z,50.53
2017-09-29T20:48:21.436Z,50.85
2017-09-29T20:50:48.926Z,60.70
2017-09-29T20:53:16.394Z,52.13
2017-09-29T20:55:44.408Z,53.85
2017-09-29T20:58:11.982Z,49.97
2017-09-29T21:00:39.464Z,50.83
2017-09-29T21:03:06.931Z,49.05
2017-09-29T21:05:34.386Z,54.13
2017-09-29T21:08:02.680Z,55.65
2017-09-29T21:10:30.198Z,54.72
2017-09-29T21:12:57.749Z,50.65
2017-09-29T21:15:25.249Z,60.00
2017-09-29T21:17:52.803Z,48.92
2017-09-29T21:20:21.384Z,54.35
2017-09-29T21:22:48.857Z,52.33
2017-09-29T21:25:16.366Z,53.40
2017-09-29T21:27:43.859Z,57.85
2017-09-29T21:30:11.437Z,56.22
2017-09-29T21:32:39.691Z,51.00
2017-09-29T21:35:07.203Z,57.67
2017-09-29T21:37:34.719Z,58.10
2017-09-29T21:40:02.273Z,55.15
2017-09-29T21:42:39.767Z,50.80
2017-09-29T21:45:07.242Z,54.40
2017-09-29T21:47:35.582Z,56.53
2017-09-29T21:50:03.323Z,59.55
2017-09-29T21:52:31.697Z,56.90
2017-09-29T21:54:59.198Z,61.67
2017-09-29T21:57:26.749Z,55.45
2017-09-29T21:59:54.213Z,54.08
2017-09-29T22:02:32.428Z,52.65
2017-09-29T22:04:59.953Z,58.25
2017-09-29T22:07:27.469Z,50.60
2017-09-29T22:09:55.826Z,54.58
2017-09-29T22:12:23.405Z,49.13
2017-09-29T22:14:51.730Z,51.33
2017-09-29T22:17:19.192Z,51.53
2017-09-29T22:19:46.669Z,53.47
2017-09-29T22:22:14.155Z,49.45
2017-09-29T22:24:42.416Z,54.05
2017-09-29T22:27:09.976Z,61.78
2017-09-29T22:29:37.450Z,51.37
2017-09-29T22:32:05.682Z,55.60
2017-09-29T22:34:33.265Z,46.88
2017-09-29T22:37:00.824Z,53.00
2017-09-29T22:39:28.529Z,54.33
2017-09-29T22:41:56.056Z,49.45
2017-09-29T22:44:23.606Z,57.92
2017-09-29T22:46:51.081Z,48.17
2017-09-29T22:49:19.353Z,51.53
2017-09-29T22:51:47.678Z,57.00
2017-09-29T22:54:15.140Z,53.65
2017-09-29T22:56:42.615Z,53.10
2017-09-29T22:59:10.094Z,50.33
2017-09-29T23:01:37.558Z,51.67
2017-09-29T23:04:05.127Z,59.10
2017-09-29T23:06:33.390Z,52.50
2017-09-29T23:09:00.853Z,58.15
2017-09-29T23:11:29.919Z,62.97
2017-09-29T23:13:57.388Z,51.17
2017-09-29T23:16:24.971Z,58.53
2017-09-29T23:18:52.579Z,52.40
2017-09-29T23:21:20.093Z,56.72
2017-09-29T23:23:47.561Z,48.63
2017-09-29T23:26:15.866Z,51.08
2017-09-29T23:28:43.361Z,48.72
2017-09-29T23:31:10.929Z,46.45
2017-09-29T23:33:38.489Z,45.20
2017-09-29T23:36:05.964Z,50.10
2017-09-29T23:38:33.424Z,43.42
2017-09-29T23:41:01.767Z,49.55
2017-09-29T23:43:29.320Z,49.78
2017-09-29T23:45:56.829Z,48.90
2017-09-29T23:48:24.350Z,51.58
2017-09-29T23:50:51.873Z,58.63
2017-09-29T23:53:19.444Z,47.13
2017-09-29T23:55:46.900Z,49.78
2017-09-29T23:58:14.412Z,47.28
